PDT,Max TemperatureF,Mean TemperatureF,Min TemperatureF,Max Dew PointF,MeanDew PointF,Min DewpointF,Max Humidity, Mean Humidity, Min Humidity, Max Sea Level PressureIn, Mean Sea Level PressureIn, Min Sea Level PressureIn, Max VisibilityMiles, Mean VisibilityMiles, Min VisibilityMiles, Max Wind SpeedMPH, Mean Wind SpeedMPH, Max Gust SpeedMPH,PrecipitationIn, CloudCover, Events, WindDirDegrees
2011-10-1,100,89,79,61,51,43,54,29,15,29.87,29.82,29.75,10,10,10,14,7,,0.02,2,Rain,332
2011-10-2,102,88,75,49,47,44,40,26,15,29.89,29.81,29.74,10,10,10,9,5,,0.00,0,,216
2011-10-3,100,88,78,64,51,45,61,31,16,29.91,29.74,29.63,10,10,10,21,5,26,0.06,1,Rain-Thunderstorm,260
2011-10-4,82,75,66,64,59,54,84,60,37,29.80,29.71,29.63,10,10,5,10,4,,0.18,6,Rain-Thunderstorm,301
2011-10-5,80,71,63,56,50,44,75,51,30,29.77,29.66,29.57,10,10,8,24,11,37,0.12,3,Rain,221
2011-10-6,73,65,57,46,38,34,59,38,25,29.83,29.73,29.63,10,10,10,21,10,24,0.01,1,,335
2011-10-7,75,66,57,40,33,24,49,30,16,29.97,29.92,29.83,10,10,10,16,7,24,0.00,0,,353
2011-10-8,81,68,55,39,35,29,55,31,16,30.01,29.95,29.89,10,10,10,26,7,31,0.00,0,,354
2011-10-9,84,73,64,40,35,29,36,26,14,29.96,29.89,29.81,10,10,10,13,9,,0.00,0,,345
2011-10-10,87,73,62,39,35,30,39,25,14,29.89,29.82,29.75,10,10,10,8,5,,0.00,0,,340
2011-10-11,93,76,61,41,37,32,39,24,12,29.87,29.81,29.75,10,10,10,10,3,,0.00,0,,347
2011-10-12,96,82,68,41,32,20,37,19,7,29.91,29.83,29.79,10,10,10,21,9,26,0.00,0,,360
2011-10-13,99,84,70,34,30,24,25,15,7,29.86,29.78,29.69,10,10,10,12,7,,0.00,0,,329
2011-10-14,97,80,64,35,31,28,29,18,9,29.83,29.76,29.71,10,10,10,9,4,,0.00,0,,304
2011-10-15,99,82,64,36,31,27,28,17,8,29.84,29.77,29.71,10,10,10,8,4,,0.00,0,,303
2011-10-16,100,83,66,35,33,31,30,18,9,29.87,29.81,29.75,10,10,10,14,6,,0.00,0,,244
2011-10-17,96,82,69,39,35,27,32,19,12,29.94,29.89,29.83,10,10,10,25,9,32,0.00,0,,19
2011-10-18,93,82,72,26,22,19,16,12,7,29.99,29.91,29.83,10,10,10,25,13,31,0.00,0,,357
2011-10-19,93,78,64,28,24,20,21,14,9,29.86,29.78,29.70,10,10,10,8,4,,0.00,0,,246
2011-10-20,93,78,62,31,26,22,24,17,9,29.90,29.84,29.78,10,10,10,10,4,,0.00,0,,236
2011-10-21,93,78,64,34,29,24,27,18,11,30.01,29.94,29.88,10,10,10,10,5,,0.00,0,,297
2011-10-22,96,78,62,32,28,24,30,17,8,30.00,29.93,29.86,10,10,10,12,6,,0.00,0,,321
2011-10-23,95,80,68,31,28,25,23,16,8,29.95,29.87,29.80,10,10,10,10,5,,0.00,0,,329
2011-10-24,93,78,63,37,32,29,29,18,11,29.91,29.84,29.78,10,10,10,14,3,,0.00,0,,237
2011-10-25,93,82,71,48,41,32,39,25,12,29.83,29.75,29.67,10,10,10,21,7,31,0.00,1,,240
2011-10-26,77,70,63,46,27,8,42,23,8,29.98,29.85,29.71,10,10,10,30,16,40,0.00,0,,10
2011-10-27,75,67,59,15,11,9,15,12,8,30.04,29.99,29.93,10,10,10,22,15,30,0.00,0,,355
2011-10-28,82,70,57,16,14,12,19,13,7,30.09,30.02,29.96,10,10,10,15,7,20,0.00,0,,334
2011-10-29,87,70,54,20,16,13,21,14,7,30.04,29.97,29.91,10,10,10,9,4,,0.00,0,,309
2011-10-30,89,73,57,21,18,15,21,13,7,30.04,29.97,29.92,10,10,10,12,4,,0.00,0,,331
2011-10-31,88,71,55,27,20,15,24,15,8,29.98,29.89,29.81,10,10,10,10,3,,0.00,0,,246